createdAt,value
2019-01-02T00:00:34.524Z,4.60
2019-01-02T00:03:23.838Z,4.60
2019-01-02T00:06:12.545Z,4.50
2019-01-02T00:09:01.561Z,4.50
2019-01-02T00:11:50.577Z,4.50
2019-01-02T00:14:39.586Z,4.60
2019-01-02T00:17:29.091Z,4.70
2019-01-02T00:20:18.065Z,4.70
2019-01-02T00:23:07.199Z,4.80
2019-01-02T00:25:55.421Z,4.80
2019-01-02T00:28:44.357Z,4.70
2019-01-02T00:31:33.084Z,4.80
2019-01-02T00:34:21.636Z,4.70
2019-01-02T00:37:10.680Z,4.70
2019-01-02T00:39:59.284Z,4.60
2019-01-02T00:42:48.721Z,4.50
2019-01-02T00:45:37.507Z,4.40
2019-01-02T00:48:26.068Z,4.40
2019-01-02T00:51:14.992Z,4.30
2019-01-02T00:54:04.079Z,4.30
2019-01-02T00:56:52.551Z,4.30
2019-01-02T00:59:41.396Z,4.30
2019-01-02T01:02:31.084Z,4.20
2019-01-02T01:05:19.933Z,4.20
2019-01-02T01:08:08.694Z,4.20
2019-01-02T01:10:58.200Z,4.20
2019-01-02T01:13:47.405Z,4.20
2019-01-02T01:16:36.407Z,4.20
2019-01-02T01:19:25.727Z,4.30
2019-01-02T01:22:14.426Z,4.20
2019-01-02T01:25:03.541Z,4.20
2019-01-02T01:27:52.192Z,4.30
2019-01-02T01:30:41.492Z,4.20
2019-01-02T01:33:30.473Z,4.20
2019-01-02T01:36:19.085Z,4.20
2019-01-02T01:39:09.822Z,4.20
2019-01-02T01:41:58.852Z,4.20
2019-01-02T01:44:48.045Z,4.20
2019-01-02T01:47:36.916Z,4.20
2019-01-02T01:50:25.646Z,4.20
2019-01-02T01:53:14.190Z,4.20
2019-01-02T01:56:03.174Z,4.20
2019-01-02T01:58:51.836Z,4.20
2019-01-02T02:01:40.371Z,4.20
2019-01-02T02:04:29.738Z,4.10
2019-01-02T02:07:19.210Z,4.10
2019-01-02T02:10:15.967Z,4.10
2019-01-02T02:13:05.230Z,4.10
2019-01-02T02:15:53.798Z,4.10
2019-01-02T02:18:42.879Z,4.00
2019-01-02T02:21:31.668Z,4.10
2019-01-02T02:24:21.641Z,4.00
2019-01-02T02:27:10.330Z,4.10
2019-01-02T02:29:59.347Z,4.10
2019-01-02T02:32:48.140Z,4.10
2019-01-02T02:35:37.451Z,4.00
2019-01-02T02:38:26.370Z,4.00
2019-01-02T02:41:16.005Z,4.00
2019-01-02T02:44:05.190Z,4.00
2019-01-02T02:46:54.323Z,4.10
2019-01-02T02:49:43.447Z,4.10
2019-01-02T02:52:32.187Z,4.10
2019-01-02T02:55:21.236Z,4.10
2019-01-02T02:58:10.210Z,4.10
2019-01-02T03:00:59.604Z,4.00
2019-01-02T03:03:49.185Z,4.00
2019-01-02T03:06:38.801Z,4.00
2019-01-02T03:09:28.274Z,3.90
2019-01-02T03:12:17.079Z,3.90
2019-01-02T03:15:10.442Z,3.90
2019-01-02T03:17:59.271Z,3.90
2019-01-02T03:20:48.275Z,4.00
2019-01-02T03:23:37.438Z,3.90
2019-01-02T03:26:26.426Z,3.80
2019-01-02T03:29:15.517Z,3.90
2019-01-02T03:32:04.619Z,3.90
2019-01-02T03:34:54.129Z,3.90
2019-01-02T03:37:42.725Z,3.80
2019-01-02T03:40:31.552Z,3.80
2019-01-02T03:43:20.788Z,3.90
2019-01-02T03:46:09.885Z,3.90
2019-01-02T03:48:59.024Z,3.80
2019-01-02T03:51:48.111Z,3.90
2019-01-02T03:54:37.391Z,3.90
2019-01-02T03:57:26.444Z,3.90
2019-01-02T04:00:19.044Z,3.90
2019-01-02T04:03:07.548Z,3.90
2019-01-02T04:05:58.726Z,3.90
2019-01-02T04:08:48.209Z,3.90
2019-01-02T04:11:37.268Z,3.90
2019-01-02T04:14:26.472Z,3.80
2019-01-02T04:17:15.311Z,3.90
2019-01-02T04:20:07.997Z,3.80
2019-01-02T04:22:56.815Z,3.80
2019-01-02T04:25:46.287Z,3.80
2019-01-02T04:28:35.144Z,3.80
2019-01-02T04:31:24.300Z,3.80
2019-01-02T04:34:13.237Z,3.80
2019-01-02T04:37:02.740Z,3.80
2019-01-02T04:39:51.823Z,3.90
2019-01-02T04:42:41.256Z,3.90
2019-01-02T04:45:30.249Z,3.90
2019-01-02T04:48:19.393Z,3.90
2019-01-02T04:51:08.767Z,3.90
2019-01-02T04:53:57.459Z,3.80
2019-01-02T04:56:46.685Z,3.80
2019-01-02T04:59:36.302Z,3.90
2019-01-02T05:02:25.501Z,3.90
2019-01-02T05:05:14.176Z,3.90
2019-01-02T05:08:03.192Z,3.80
2019-01-02T05:10:52.299Z,3.80
2019-01-02T05:13:41.295Z,3.90
2019-01-02T05:16:30.152Z,4.00
2019-01-02T05:19:19.580Z,3.90
2019-01-02T05:22:08.637Z,3.90
2019-01-02T05:24:57.021Z,3.90
2019-01-02T05:27:46.255Z,3.80
2019-01-02T05:30:34.948Z,3.70
2019-01-02T05:33:24.002Z,3.70
2019-01-02T05:36:12.821Z,3.70
2019-01-02T05:39:01.606Z,3.60
2019-01-02T05:41:50.642Z,3.70
2019-01-02T05:44:39.524Z,3.60
2019-01-02T05:47:28.638Z,3.70
2019-01-02T05:50:17.949Z,3.70
2019-01-02T05:53:06.699Z,3.70
2019-01-02T05:55:55.274Z,3.60
2019-01-02T05:58:44.320Z,3.60
2019-01-02T06:01:33.314Z,3.60
2019-01-02T06:04:22.267Z,3.50
2019-01-02T06:07:11.206Z,3.50
2019-01-02T06:10:00.353Z,3.50
2019-01-02T06:12:49.057Z,3.50
2019-01-02T06:15:38.215Z,3.50
2019-01-02T06:18:26.718Z,3.50
2019-01-02T06:21:15.269Z,3.50
2019-01-02T06:24:03.707Z,3.50
2019-01-02T06:26:52.210Z,3.50
2019-01-02T06:29:41.045Z,3.40
2019-01-02T06:32:29.950Z,3.30
2019-01-02T06:35:18.091Z,3.20
2019-01-02T06:38:06.550Z,3.30
2019-01-02T06:40:55.235Z,3.30
2019-01-02T06:43:44.491Z,3.30
2019-01-02T06:46:32.144Z,3.20
2019-01-02T06:49:20.300Z,3.20
2019-01-02T06:52:08.362Z,3.20
2019-01-02T06:54:56.132Z,3.10
2019-01-02T06:57:44.640Z,3.10
2019-01-02T07:00:32.683Z,3.00
2019-01-02T07:03:20.888Z,3.00
2019-01-02T07:06:08.854Z,3.00
2019-01-02T07:08:57.885Z,3.10
2019-01-02T07:11:45.780Z,3.00
2019-01-02T07:14:34.001Z,3.00
2019-01-02T07:17:22.053Z,3.00
2019-01-02T07:20:11.367Z,3.10
2019-01-02T07:22:59.643Z,3.10
2019-01-02T07:25:47.978Z,3.00
2019-01-02T07:28:36.075Z,3.00
2019-01-02T07:31:23.940Z,3.00
2019-01-02T07:34:15.089Z,3.00
2019-01-02T07:37:27.525Z,2.90
2019-01-02T07:40:51.486Z,3.00
2019-01-02T07:43:45.824Z,2.90
2019-01-02T07:46:45.774Z,2.90
2019-01-02T07:49:39.677Z,3.00
2019-01-02T07:52:50.576Z,2.90
2019-01-02T07:56:00.870Z,2.90
2019-01-02T07:59:12.383Z,2.90
2019-01-02T08:02:22.463Z,2.90
2019-01-02T08:05:19.415Z,2.80
2019-01-02T08:08:29.912Z,2.90
2019-01-02T08:11:26.951Z,2.90
2019-01-02T08:14:26.614Z,2.90
2019-01-02T08:17:25.822Z,3.00
2019-01-02T08:20:28.674Z,2.90
2019-01-02T08:23:52.763Z,2.90
2019-01-02T08:26:59.825Z,3.00
2019-01-02T08:29:59.758Z,3.00
2019-01-02T08:33:14.396Z,3.00
2019-01-02T08:36:13.962Z,3.00
2019-01-02T08:39:10.455Z,2.90
2019-01-02T08:42:13.661Z,3.00
2019-01-02T08:45:22.537Z,3.10
2019-01-02T08:48:16.364Z,3.20
2019-01-02T08:51:36.139Z,3.20
2019-01-02T08:54:29.877Z,3.20
2019-01-02T08:57:35.800Z,3.40
2019-01-02T09:00:29.666Z,3.30
2019-01-02T09:03:21.261Z,3.40
2019-01-02T09:06:31.730Z,3.40
2019-01-02T09:09:25.681Z,3.40
2019-01-02T09:12:28.869Z,3.50
2019-01-02T09:15:20.001Z,3.60
2019-01-02T09:18:10.894Z,3.60
2019-01-02T09:21:26.425Z,3.70
2019-01-02T09:24:39.462Z,3.60
2019-01-02T09:27:36.618Z,3.70
2019-01-02T09:30:33.295Z,3.80
2019-01-02T09:33:38.780Z,3.80
2019-01-02T09:36:29.752Z,3.90
2019-01-02T09:39:23.136Z,3.90
2019-01-02T09:42:22.897Z,4.00
2019-01-02T09:45:23.241Z,4.00
2019-01-02T09:48:31.993Z,4.00
2019-01-02T09:51:51.329Z,4.00
2019-01-02T09:55:03.046Z,4.10
2019-01-02T09:58:10.354Z,4.20
2019-01-02T10:01:10.129Z,4.20
2019-01-02T10:04:17.626Z,4.20
2019-01-02T10:07:23.281Z,4.20
2019-01-02T10:10:29.581Z,4.20
2019-01-02T10:13:23.876Z,4.30
2019-01-02T10:16:17.789Z,4.30
2019-01-02T10:19:20.734Z,4.30
2019-01-02T10:22:23.936Z,4.30
2019-01-02T10:25:18.029Z,4.40
2019-01-02T10:28:14.730Z,4.40
2019-01-02T10:31:26.757Z,4.40
2019-01-02T10:34:32.667Z,4.50
2019-01-02T10:37:28.965Z,4.40
2019-01-02T10:40:31.360Z,4.40
2019-01-02T10:43:38.440Z,4.50
2019-01-02T10:46:44.666Z,4.50
2019-01-02T10:50:10.731Z,4.60
2019-01-02T10:53:13.459Z,4.60
2019-01-02T10:56:05.284Z,4.60
2019-01-02T10:59:07.840Z,4.60
2019-01-02T11:02:25.628Z,4.50
2019-01-02T11:05:16.689Z,4.60
2019-01-02T11:08:15.875Z,4.60
2019-01-02T11:11:15.933Z,4.50
2019-01-02T11:14:35.747Z,4.60
2019-01-02T11:17:42.455Z,4.60
2019-01-02T11:20:45.276Z,4.70
2019-01-02T11:23:53.961Z,4.70
2019-01-02T11:26:50.510Z,4.70
2019-01-02T11:29:56.419Z,4.80
2019-01-02T11:33:02.421Z,4.80
2019-01-02T11:36:05.451Z,4.80
2019-01-02T11:39:02.141Z,4.80
2019-01-02T11:42:05.002Z,4.80
2019-01-02T11:45:09.145Z,4.80
2019-01-02T11:47:56.825Z,4.90
2019-01-02T11:50:44.961Z,4.80
2019-01-02T11:53:34.732Z,4.80
2019-01-02T11:56:22.231Z,4.80
2019-01-02T11:59:10.347Z,4.90
2019-01-02T12:01:58.455Z,4.90
2019-01-02T12:04:46.684Z,4.90
2019-01-02T12:07:35.001Z,5.00
2019-01-02T12:10:23.422Z,4.90
2019-01-02T12:13:11.375Z,4.90
2019-01-02T12:15:59.262Z,5.00
2019-01-02T12:18:47.565Z,4.90
2019-01-02T12:21:35.649Z,4.90
2019-01-02T12:24:23.577Z,4.90
2019-01-02T12:27:11.724Z,4.90
2019-01-02T12:29:59.791Z,4.90
2019-01-02T12:32:47.179Z,5.00
2019-01-02T12:35:35.116Z,5.00
2019-01-02T12:38:23.194Z,5.10
2019-01-02T12:41:11.162Z,5.10
2019-01-02T12:43:59.255Z,5.10
2019-01-02T12:46:47.409Z,5.10
2019-01-02T12:49:35.786Z,5.10
2019-01-02T12:52:23.793Z,5.20
2019-01-02T12:55:12.005Z,5.10
2019-01-02T12:57:59.806Z,5.10
2019-01-02T13:00:51.349Z,5.00
2019-01-02T13:04:09.494Z,5.00
2019-01-02T13:07:08.810Z,4.90
2019-01-02T13:10:00.176Z,4.90
2019-01-02T13:13:03.216Z,4.90
2019-01-02T13:15:54.363Z,4.80
2019-01-02T13:18:54.549Z,4.80
2019-01-02T13:21:54.381Z,4.70
2019-01-02T13:24:54.431Z,4.70
2019-01-02T13:28:06.606Z,4.80
2019-01-02T13:31:15.084Z,4.70
2019-01-02T13:34:06.046Z,4.70
2019-01-02T13:37:05.805Z,4.70
2019-01-02T13:40:24.534Z,4.60
2019-01-02T13:43:32.569Z,4.60
2019-01-02T13:46:41.313Z,4.60
2019-01-02T13:49:47.270Z,4.50
2019-01-02T13:52:34.783Z,4.50
2019-01-02T13:55:22.941Z,4.50
2019-01-02T13:58:11.291Z,4.40
2019-01-02T14:00:59.441Z,4.40
2019-01-02T14:03:47.300Z,4.40
2019-01-02T14:06:35.229Z,4.40
2019-01-02T14:09:24.221Z,4.40
2019-01-02T14:12:12.225Z,4.30
2019-01-02T14:15:00.321Z,4.30
2019-01-02T14:17:48.729Z,4.20
2019-01-02T14:20:36.905Z,4.10
2019-01-02T14:23:25.134Z,4.10
2019-01-02T14:26:13.195Z,4.00
2019-01-02T14:29:00.849Z,4.00
2019-01-02T14:31:48.555Z,4.00
2019-01-02T14:34:36.757Z,3.90
2019-01-02T14:37:24.461Z,3.90
2019-01-02T14:40:12.850Z,3.90
2019-01-02T14:43:00.613Z,3.80
2019-01-02T14:45:48.659Z,3.80
2019-01-02T14:48:36.837Z,3.80
2019-01-02T14:51:25.037Z,3.70
2019-01-02T14:54:13.567Z,3.70
2019-01-02T14:57:01.614Z,3.60
2019-01-02T14:59:49.616Z,3.60
2019-01-02T15:02:37.697Z,3.60
2019-01-02T15:05:26.799Z,3.60
2019-01-02T15:08:14.674Z,3.50
2019-01-02T15:11:08.112Z,3.50
2019-01-02T15:13:52.163Z,3.50
2019-01-02T15:16:44.530Z,3.40
2019-01-02T15:19:29.712Z,3.40
2019-01-02T15:22:17.676Z,3.40
2019-01-02T15:25:07.191Z,3.30
2019-01-02T15:27:56.922Z,3.30
2019-01-02T15:30:44.887Z,3.30
2019-01-02T15:33:32.984Z,3.20
2019-01-02T15:36:20.677Z,3.20
2019-01-02T15:39:08.754Z,3.20
2019-01-02T15:41:57.297Z,3.20
2019-01-02T15:44:45.311Z,3.20
2019-01-02T15:47:33.405Z,3.10
2019-01-02T15:50:21.197Z,3.00
2019-01-02T15:53:09.664Z,2.90
2019-01-02T15:55:57.609Z,2.80
2019-01-02T15:58:45.512Z,2.80
2019-01-02T16:01:33.301Z,2.80
2019-01-02T16:04:21.315Z,2.80
2019-01-02T16:07:09.219Z,2.90
2019-01-02T16:09:57.101Z,2.70
2019-01-02T16:12:47.395Z,2.60
2019-01-02T16:15:34.026Z,2.50
2019-01-02T16:18:22.113Z,2.50
2019-01-02T16:21:10.001Z,2.40
2019-01-02T16:23:58.259Z,2.40
2019-01-02T16:26:46.520Z,2.30
2019-01-02T16:29:35.053Z,2.40
2019-01-02T16:32:23.090Z,2.30
2019-01-02T16:35:11.077Z,2.20
2019-01-02T16:37:58.897Z,2.20
2019-01-02T16:40:46.953Z,2.10
2019-01-02T16:43:35.350Z,2.10
2019-01-02T16:46:23.284Z,2.00
2019-01-02T16:49:11.227Z,2.00
2019-01-02T16:51:59.166Z,2.10
2019-01-02T16:54:47.207Z,2.10
2019-01-02T16:57:35.117Z,2.10
2019-01-02T17:00:23.353Z,2.20
2019-01-02T17:03:11.430Z,2.20
2019-01-02T17:05:59.158Z,2.20
2019-01-02T17:08:47.294Z,2.20
2019-01-02T17:11:35.344Z,2.10
2019-01-02T17:14:23.296Z,2.20
2019-01-02T17:17:10.746Z,2.10
2019-01-02T17:19:58.892Z,2.10
2019-01-02T17:22:46.696Z,2.00
2019-01-02T17:25:34.616Z,2.00
2019-01-02T17:28:22.639Z,2.00
2019-01-02T17:31:10.733Z,1.90
2019-01-02T17:33:58.847Z,2.00
2019-01-02T17:36:46.648Z,2.00
2019-01-02T17:39:34.425Z,1.90
2019-01-02T17:42:21.808Z,2.00
2019-01-02T17:45:09.385Z,1.90
2019-01-02T17:47:57.236Z,1.90
2019-01-02T17:50:45.467Z,1.90
2019-01-02T17:53:33.304Z,1.80
2019-01-02T17:56:21.392Z,1.70
2019-01-02T17:59:09.361Z,1.70
2019-01-02T18:01:57.802Z,1.70
2019-01-02T18:04:45.633Z,1.60
2019-01-02T18:07:33.850Z,1.60
2019-01-02T18:10:21.956Z,1.60
2019-01-02T18:13:09.865Z,1.60
2019-01-02T18:15:57.878Z,1.60
2019-01-02T18:18:45.646Z,1.70
2019-01-02T18:21:33.752Z,1.70
2019-01-02T18:24:21.849Z,1.70
2019-01-02T18:27:09.796Z,1.70
2019-01-02T18:29:57.630Z,1.70
2019-01-02T18:32:45.491Z,1.70
2019-01-02T18:35:33.504Z,1.60
2019-01-02T18:38:21.066Z,1.50
2019-01-02T18:41:09.075Z,1.50
2019-01-02T18:43:57.424Z,1.50
2019-01-02T18:46:45.564Z,1.50
2019-01-02T18:49:33.557Z,1.40
2019-01-02T18:52:22.008Z,1.50
2019-01-02T18:55:10.572Z,1.50
2019-01-02T18:57:59.866Z,1.40
2019-01-02T19:00:48.107Z,1.40
2019-01-02T19:03:35.732Z,1.30
2019-01-02T19:06:27.508Z,1.40
2019-01-02T19:09:15.985Z,1.30
2019-01-02T19:12:04.144Z,1.20
2019-01-02T19:14:52.214Z,1.20
2019-01-02T19:17:40.168Z,1.20
2019-01-02T19:20:28.332Z,1.20
2019-01-02T19:23:16.405Z,1.20
2019-01-02T19:26:04.156Z,1.10
2019-01-02T19:28:52.223Z,1.10
2019-01-02T19:31:40.622Z,1.00
2019-01-02T19:34:29.107Z,1.00
2019-01-02T19:37:16.731Z,1.00
2019-01-02T19:40:05.645Z,1.00
2019-01-02T19:42:53.306Z,1.00
2019-01-02T19:45:42.766Z,0.90
2019-01-02T19:48:31.079Z,0.90
2019-01-02T19:51:18.849Z,0.90
2019-01-02T19:54:06.901Z,0.90
2019-01-02T19:56:54.824Z,0.90
2019-01-02T19:59:43.133Z,0.80
2019-01-02T20:02:31.430Z,0.80
2019-01-02T20:05:19.484Z,0.80
2019-01-02T20:08:06.937Z,0.80
2019-01-02T20:10:55.156Z,0.80
2019-01-02T20:13:42.895Z,0.80
2019-01-02T20:16:31.035Z,0.70
2019-01-02T20:19:19.152Z,0.60
2019-01-02T20:22:07.508Z,0.60
2019-01-02T20:24:55.612Z,0.50
2019-01-02T20:27:43.789Z,0.50
2019-01-02T20:30:31.449Z,0.60
2019-01-02T20:33:19.303Z,0.60
2019-01-02T20:36:07.283Z,0.60
2019-01-02T20:38:54.851Z,0.50
2019-01-02T20:41:42.785Z,0.40
2019-01-02T20:44:30.944Z,0.50
2019-01-02T20:47:19.265Z,0.40
2019-01-02T20:50:09.015Z,0.40
2019-01-02T20:52:56.726Z,0.30
2019-01-02T20:55:44.740Z,0.30
2019-01-02T20:58:32.906Z,0.30
2019-01-02T21:01:20.992Z,0.20
2019-01-02T21:04:08.366Z,0.30
2019-01-02T21:06:56.521Z,0.30
2019-01-02T21:09:44.365Z,0.30
2019-01-02T21:12:34.181Z,0.30
2019-01-02T21:15:22.166Z,0.30
2019-01-02T21:18:10.230Z,0.30
2019-01-02T21:20:58.342Z,0.30
2019-01-02T21:23:46.318Z,0.20
2019-01-02T21:26:34.524Z,0.20
2019-01-02T21:29:22.747Z,0.20
2019-01-02T21:32:10.697Z,0.20
2019-01-02T21:34:58.884Z,0.30
2019-01-02T21:37:46.635Z,0.30
2019-01-02T21:40:34.515Z,0.20
2019-01-02T21:43:22.738Z,0.20
2019-01-02T21:46:10.545Z,0.20
2019-01-02T21:48:58.948Z,0.20
2019-01-02T21:51:47.257Z,0.10
2019-01-02T21:54:35.302Z,0.10
2019-01-02T21:57:23.211Z,0.10
2019-01-02T22:00:12.844Z,0.10
2019-01-02T22:03:01.088Z,0.10
2019-01-02T22:05:49.295Z,0.20
2019-01-02T22:08:37.242Z,0.20
2019-01-02T22:11:25.450Z,0.10
2019-01-02T22:14:12.814Z,0.10
2019-01-02T22:17:01.147Z,0.10
2019-01-02T22:19:49.073Z,0.10
2019-01-02T22:22:37.252Z,0.00
2019-01-02T22:25:25.080Z,-0.10
2019-01-02T22:28:13.030Z,-0.10
2019-01-02T22:31:01.315Z,-0.20
2019-01-02T22:33:49.472Z,-0.20
2019-01-02T22:36:37.165Z,-0.10
2019-01-02T22:39:25.638Z,-0.10
2019-01-02T22:42:13.768Z,-0.10
2019-01-02T22:45:03.192Z,-0.10
2019-01-02T22:47:51.298Z,-0.10
2019-01-02T22:50:39.410Z,-0.20
2019-01-02T22:53:27.551Z,-0.10
2019-01-02T22:56:15.819Z,-0.10
2019-01-02T22:59:03.960Z,-0.10
2019-01-02T23:01:53.433Z,-0.10
2019-01-02T23:04:45.747Z,-0.10
2019-01-02T23:07:35.411Z,-0.10
2019-01-02T23:10:43.431Z,-0.10
2019-01-02T23:13:33.080Z,-0.10
2019-01-02T23:16:31.628Z,-0.20
2019-01-02T23:19:20.891Z,-0.30
2019-01-02T23:22:10.564Z,-0.20
2019-01-02T23:25:14.963Z,-0.20
2019-01-02T23:28:20.835Z,-0.20
2019-01-02T23:31:19.508Z,-0.20
2019-01-02T23:34:15.313Z,-0.20
2019-01-02T23:37:19.624Z,-0.30
2019-01-02T23:40:26.753Z,-0.30
2019-01-02T23:43:16.074Z,-0.30
2019-01-02T23:46:21.398Z,-0.30
2019-01-02T23:49:25.433Z,-0.30
2019-01-02T23:52:26.528Z,-0.20
2019-01-02T23:55:32.339Z,-0.20
2019-01-02T23:58:39.629Z,-0.30
